Pagina 68 di 118 PrimaPrima ... 1858666768697078 ... UltimaUltima
Risultati da 671 a 680 di 1172
  1. #671
    Uragano L'avatar di Marcoan
    Data Registrazione
    02/09/03
    Località
    Portogruaro (VE)
    Messaggi
    15,851
    Menzionato
    143 Post(s)

    Predefinito Re: Aprile 2024 (Italy - Europe - World)

    Rovescio di graupel in corso a Monfalcone

  2. #672
    Vento teso
    Data Registrazione
    11/01/24
    Località
    Alto Polesine (RO)
    Età
    26
    Messaggi
    1,509
    Menzionato
    6 Post(s)

    Predefinito Re: Aprile 2024 (Italy - Europe - World)

    Citazione Originariamente Scritto da Marcoan Visualizza Messaggio
    Rovescio di graupel in corso a Monfalcone
    Ciao, a proposito, ieri a Ronchi dei Legionari c'è stato un temporale con pioggia e neve ma con 7°C?
    METAR LIPQ 161650Z AUTO 05010KT 5000 TSRASN OVC038/// 07/05 Q1006
    METAR LIPQ 161720Z AUTO 09011KT 8000 -RASN OVC037/// 07/05 Q1005 RETSRASN

    Ultima modifica di Matteo97; 17/04/2024 alle 15:42
    2024 -> estremi: -4,2°C (21/1)/37,5°C (11/7)
    vento massimo: 58,7 km/h (20/4)
    UR minima: 20% (16/4)

  3. #673
    Vento fresco L'avatar di Presidente
    Data Registrazione
    19/04/18
    Località
    Castelforte (LT)
    Messaggi
    2,543
    Menzionato
    27 Post(s)

    Predefinito Re: Aprile 2024 (Italy - Europe - World)

    15 gradi
    La mattina era stata quasi simile ai due gg precedenti, che sono stati caldi ma non come lo è stato il weekend (in particolare domenica).
    Poi al pomeriggio pioggia piuttosto continua e a momenti anche sostenuta.
    Come spesso capita il caldo africano viene "smorzato " da una botta d'aria fresca che oggi ci ha fatto tornare quasi in autunno.

  4. #674
    Vento moderato L'avatar di Luca.
    Data Registrazione
    15/10/22
    Località
    Cuneo - Napoli
    Messaggi
    1,442
    Menzionato
    0 Post(s)

    Predefinito Re: Aprile 2024 (Italy - Europe - World)

    Citazione Originariamente Scritto da Matteo97 Visualizza Messaggio
    Ciao, a proposito, ieri a Ronchi dei Legionari c'è stato un temporale con pioggia e neve ma con 7°C?
    METAR LIPQ 161650Z AUTO 05010KT 5000 TSRASN OVC038/// 07/05 Q1006
    METAR LIPQ 161720Z AUTO 09011KT 8000 -RASN OVC037/// 07/05 Q1005 RETSRASN

    Interessante. Ci ho dato un'occhiata e sembra improbabile, perché c'è stato, si, un calo repentino della T ma da circa 12 ad 8 °C secondo una stazione MNW ed in più, anche se vogliamo ammettere 7 gradi, la T di rugiada era di ben 5 gradi.
    L'avranno mica confusa con il graupel?

  5. #675
    Vento teso
    Data Registrazione
    11/01/24
    Località
    Alto Polesine (RO)
    Età
    26
    Messaggi
    1,509
    Menzionato
    6 Post(s)

    Predefinito Re: Aprile 2024 (Italy - Europe - World)

    Citazione Originariamente Scritto da Luca. Visualizza Messaggio
    Interessante. Ci ho dato un'occhiata e sembra improbabile, perché c'è stato, si, un calo repentino della T ma da circa 12 ad 8 °C secondo una stazione MNW ed in più, anche se vogliamo ammettere 7 gradi, la T di rugiada era di ben 5 gradi.
    L'avranno mica confusa con il graupel?
    Ci ho pensato anch'io, non saprei, anche perchè sono ben due segnalazioni a distanza di mezz'ora e teoricamente sono esperti chi ci lavora, seppur non è sempre facile.
    2024 -> estremi: -4,2°C (21/1)/37,5°C (11/7)
    vento massimo: 58,7 km/h (20/4)
    UR minima: 20% (16/4)

  6. #676
    Uragano L'avatar di Davide1987
    Data Registrazione
    08/04/03
    Località
    Trecate (NO) - Corteno Golgi (BS)
    Età
    37
    Messaggi
    52,438
    Menzionato
    39 Post(s)

    Predefinito Re: Aprile 2024 (Italy - Europe - World)

    18.8 molto nuvoloso

    Inviato dal mio 22081212UG utilizzando Tapatalk
    Quando questo mondo ti sta crollando addosso..
    La vita non si ferma con una diagnosi di Sclerosi Multipla..

  7. #677
    Uragano L'avatar di Marcoan
    Data Registrazione
    02/09/03
    Località
    Portogruaro (VE)
    Messaggi
    15,851
    Menzionato
    143 Post(s)

    Predefinito Re: Aprile 2024 (Italy - Europe - World)

    Citazione Originariamente Scritto da Matteo97 Visualizza Messaggio
    Ciao, a proposito, ieri a Ronchi dei Legionari c'è stato un temporale con pioggia e neve ma con 7°C?
    METAR LIPQ 161650Z AUTO 05010KT 5000 TSRASN OVC038/// 07/05 Q1006
    METAR LIPQ 161720Z AUTO 09011KT 8000 -RASN OVC037/// 07/05 Q1005 RETSRASN

    Non saprei ieri non ero in zona

  8. #678
    Uragano L'avatar di burian br
    Data Registrazione
    06/01/17
    Località
    Brindisi
    Età
    29
    Messaggi
    24,025
    Menzionato
    982 Post(s)

    Predefinito Re: Aprile 2024 (Italy - Europe - World)

    Citazione Originariamente Scritto da Matteo97 Visualizza Messaggio
    Ciao, a proposito, ieri a Ronchi dei Legionari c'è stato un temporale con pioggia e neve ma con 7°C?
    METAR LIPQ 161650Z AUTO 05010KT 5000 TSRASN OVC038/// 07/05 Q1006
    METAR LIPQ 161720Z AUTO 09011KT 8000 -RASN OVC037/// 07/05 Q1005 RETSRASN

    Questo è bizzarro, non credo potesse essere neve con 7°, probabilmente fosse gragnola e abbiano usato SN?

  9. #679
    Vento forte L'avatar di Hirpus96
    Data Registrazione
    27/12/20
    Località
    Avellino (AV) 361 mslm
    Età
    27
    Messaggi
    4,231
    Menzionato
    5 Post(s)

    Predefinito Re: Aprile 2024 (Italy - Europe - World)

    Diluvio con grandine da un paio d'ore, temp calata a +7.5°
    Nevica dai 1300 mt

  10. #680
    Uragano L'avatar di Davide1987
    Data Registrazione
    08/04/03
    Località
    Trecate (NO) - Corteno Golgi (BS)
    Età
    37
    Messaggi
    52,438
    Menzionato
    39 Post(s)

    Predefinito Re: Aprile 2024 (Italy - Europe - World)

    16.9 molto nuvoloso

    Inviato dal mio 22081212UG utilizzando Tapatalk
    Quando questo mondo ti sta crollando addosso..
    La vita non si ferma con una diagnosi di Sclerosi Multipla..

Segnalibri

Permessi di Scrittura

  • Tu non puoi inviare nuove discussioni
  • Tu non puoi inviare risposte
  • Tu non puoi inviare allegati
  • Tu non puoi modificare i tuoi messaggi
  •